map of IXL home
IXL - Airport
Location
City:  Leh, Jammu and Kashmir, India
ICAO:VILH
IATA:IXL

Details
Type:Airport (Aerodrome, Airfield)
Use:Military
Latitude:3408'09"N (34.135872)
Longitude:7732'47"E (77.546514)
Datum:WGS 1984
Elevation:10682 ft (3256 m)
Variation:2.34E (WMM2015v2 magnetic declination)
0.03 annual change
Runways:3
Longest:9040 × 150 ft (2755 × 45.5 m), paved

Time
Time Zone:UTC+5:30
Local Time:

Weather
TAF:VILH 040930Z 0418/0512 29010KT 6000 FEW060 SCT070 BKN100

Related Locations
Nearby:
Farthest:IPC: 11802 mi / 18993 km
Easter Island (Isla de Pascua, Rapa Nui) [Mataveri Intl], VS, CL

Find:

   beyond  
but within

Other Information
Maps:
NOTAMs:
Links:
Sources:

  
  • flag of India
  

Sectional Chart

Flight Planning
at skyvector.com

Satellite Image

Google Maps Satellite view

 

Copyright © 2004-2019 Karl L. Swartz. All rights reserved.
The Great Circle Mapper name and logo are trademarks of the Great Circle Mapper.
All other trademarks mentioned herein belong to their respective owners.
Please see credits for attibutions and further copyright information.

  Follow gcmap on Facebook Follow gcmap on Twitter GCmap on LinkedIn

hCard Microformat

Geo Microformat